AirNav   Air Wisconsin Up To $57,000 Bonus
 
 1541 users online  

23MA Westford Regency Heliport
Westford, Massachusetts, USA

GOING TO WESTFORD?


FAA INFORMATION EFFECTIVE 12 SEPTEMBER 2019

Location

FAA Identifier: 23MA
Lat/Long: 42-33-47.3300N 071-25-53.2260W
42-33.788833N 071-25.887100W
42.5631472,-71.4314517
(estimated)
Elevation: 255 ft. / 78 m (estimated)
Variation: 16W (1990)
From city: 2 miles N of WESTFORD, MA
Time zone: UTC -4 (UTC -5 during Standard Time)
Zip code: 01886

Heliport Operations

Heliport use: Private use. Permission required prior to landing
Activation date: 01/1992
Control tower: no
ARTCC: BOSTON CENTER
FSS: BRIDGEPORT FLIGHT SERVICE STATION
Attendance: UNATNDD
Wind indicator: no
Segmented circle: no

Heliport Communications

WX ASOS at BED (8 nm SE): 124.6 (781-274-9733)
WX AWOS-3PT at ASH (14 nm N): 125.1 (603-578-0473)
WX ASOS at FIT (14 nm W): 135.175 (978-343-9121)
WX ASOS at LWM (16 nm NE): PHONE 978-687-8017

Nearby radio navigation aids

VOR radial/distance  VOR name  Freq  Var
LWMr249/18.3LAWRENCE VOR/DME112.5015W
MHTr203/18.5MANCHESTER VOR/DME114.4015W
BOSr318/23.1BOSTON VOR/DME112.7016W
GDMr102/27.7GARDNER VOR/DME110.6014W
CONr186/39.9CONCORD VOR/DME112.9015W

 
NDB name  Hdg/Dist  Freq  Var  ID
HAGET260/11.440215WLW .-.. .--
SHAKER HILL316/12.925116WSKR ... -.- .-.

Heliport Services

Runway Information

Helipad H1

Dimensions: 100 x 60 ft. / 30 x 18 m
Surface: asphalt
Traffic pattern: leftleft

Heliport Ownership and Management from official FAA records

Ownership: Privately-owned
Owner: WESTFORD REGENCY INN
219 LITTLETON RD
WESTFORD, MA 01886
Phone 508-692-8200
Manager: ELIZABETH L GILDROY
219 LITTLETON RD
WESTFORD, MA 01886
Phone 508-692-8200

Additional Remarks

A52-H1 20'-75' TREES 200'-4400' E; 50' TREES 200' W; 50' TREES 50' NW.
FOR CD CTC BOSTON APCH AT 603-594-5554.

Instrument Procedures

There are no published instrument procedures at 23MA.

Some nearby airports with instrument procedures:

6B6 - Minute Man Air Field (7 nm SW)
KBED - Laurence G Hanscom Field Airport (8 nm SE)
KASH - Boire Field Airport (14 nm N)
KFIT - Fitchburg Municipal Airport (14 nm W)
KLWM - Lawrence Municipal Airport (16 nm NE)
 
Loc | Ops | Rwys | IFR | FBO | Links
Com | Nav | Svcs | Stats | Notes
Area around 23MA (Westford Regency Heliport)
 
Road maps at: MapQuest Bing Google
 
Aerial photo
No photo
 
Sectional chart

 
Airport distance calculator
Flying to Westford Regency Heliport? Find the distance to fly.

From to 23MA

Sunrise and sunset
Times for 17-Sep-2019
 Local
(UTC-4)
 Zulu
(UTC)
Morning civil twilight06:0010:00
Sunrise06:2910:29
Sunset18:5222:52
Evening civil twilight19:2023:20

Current date and time
Zulu (UTC)  17-Sep-2019 15:57:16
Local (UTC-4)  17-Sep-2019 11:57:16
 
METAR
KBED 
8nm SE 
171551Z 03010KT 10SM BKN049 21/08 A3013 RMK AO2 SLP214 T02060078
KASH 
13nm N 
171456Z 34008G16KT 10SM SCT042 19/08 A3015 RMK AO2 SLP213 T01890083 51006
KFIT 
14nm W 
171552Z AUTO 04010G15KT 10SM CLR 20/06 A3015 RMK AO2 SLP210 T02000061
KLWM 
16nm NE 
171554Z 03009KT 10SM FEW041 OVC055 19/10 A3015 RMK AO2 SLP210 T01890100
TAF
KBED 
8nm SE 
171121Z 1712/1812 35005KT P6SM SKC FM171900 02006KT P6SM SCT040 FM172000 06005KT P6SM SCT040 FM172100 10007KT P6SM SCT035 FM180700 00000KT P6SM VCSH BKN030
NOTAMs
Click for the latest NOTAMs
NOTAMs are issued by the DoD/FAA and will open in a separate window not controlled by AirNav.

 

 
 

Would you like to see your business listed on this page?

 If your business provides an interesting product or service to pilots, flight crews, aircraft, or users of the Westford Regency Heliport, you should consider listing it here.  To start the listing process, click on the button below
 
Add a business
 

Other Pages about Westford Regency Heliport

Update a link
 
Copyright © AirNav, LLC. All rights reserved. Privacy Policy  Contact